sensor_id;sensor_type;location;lat;lon;timestamp;P1;durP1;ratioP1;P2;durP2;ratioP2
19193;SDS011;9729;52.296;13.260;2023-02-02T00:00:53;22.03;;;3.33;;
19193;SDS011;9729;52.296;13.260;2023-02-02T00:03:20;15.90;;;3.17;;
19193;SDS011;9729;52.296;13.260;2023-02-02T00:05:48;20.93;;;3.23;;
19193;SDS011;9729;52.296;13.260;2023-02-02T00:08:16;18.80;;;3.13;;
19193;SDS011;9729;52.296;13.260;2023-02-02T00:10:43;28.30;;;3.67;;
19193;SDS011;9729;52.296;13.260;2023-02-02T00:13:10;18.50;;;4.03;;
19193;SDS011;9729;52.296;13.260;2023-02-02T00:15:37;19.33;;;3.30;;
19193;SDS011;9729;52.296;13.260;2023-02-02T00:18:04;18.27;;;4.47;;
19193;SDS011;9729;52.296;13.260;2023-02-02T00:20:32;32.20;;;3.73;;
19193;SDS011;9729;52.296;13.260;2023-02-02T00:22:59;25.77;;;3.97;;
19193;SDS011;9729;52.296;13.260;2023-02-02T00:25:28;16.30;;;3.97;;
19193;SDS011;9729;52.296;13.260;2023-02-02T00:27:55;18.77;;;4.07;;
19193;SDS011;9729;52.296;13.260;2023-02-02T00:30:21;24.60;;;3.67;;
19193;SDS011;9729;52.296;13.260;2023-02-02T00:32:48;29.37;;;5.10;;
19193;SDS011;9729;52.296;13.260;2023-02-02T00:35:16;27.07;;;3.83;;
19193;SDS011;9729;52.296;13.260;2023-02-02T00:37:43;22.40;;;4.37;;
19193;SDS011;9729;52.296;13.260;2023-02-02T00:40:13;15.10;;;3.30;;
19193;SDS011;9729;52.296;13.260;2023-02-02T00:42:40;13.63;;;3.07;;
19193;SDS011;9729;52.296;13.260;2023-02-02T00:45:08;18.77;;;2.83;;
19193;SDS011;9729;52.296;13.260;2023-02-02T00:47:40;20.67;;;3.80;;
19193;SDS011;9729;52.296;13.260;2023-02-02T00:50:09;18.37;;;3.30;;
19193;SDS011;9729;52.296;13.260;2023-02-02T00:52:36;21.13;;;3.53;;
19193;SDS011;9729;52.296;13.260;2023-02-02T00:55:08;24.03;;;3.30;;
19193;SDS011;9729;52.296;13.260;2023-02-02T00:57:36;24.80;;;5.20;;
19193;SDS011;9729;52.296;13.260;2023-02-02T01:00:04;16.50;;;4.33;;
19193;SDS011;9729;52.296;13.260;2023-02-02T01:02:32;22.13;;;3.80;;
19193;SDS011;9729;52.296;13.260;2023-02-02T01:05:00;27.30;;;5.20;;
19193;SDS011;9729;52.296;13.260;2023-02-02T01:07:26;17.27;;;3.60;;
19193;SDS011;9729;52.296;13.260;2023-02-02T01:09:52;17.67;;;3.67;;
19193;SDS011;9729;52.296;13.260;2023-02-02T01:12:20;18.20;;;3.30;;
19193;SDS011;9729;52.296;13.260;2023-02-02T01:14:46;28.10;;;5.30;;
19193;SDS011;9729;52.296;13.260;2023-02-02T01:17:13;30.20;;;3.90;;
19193;SDS011;9729;52.296;13.260;2023-02-02T01:19:40;26.10;;;3.63;;
19193;SDS011;9729;52.296;13.260;2023-02-02T01:22:06;22.17;;;3.97;;
19193;SDS011;9729;52.296;13.260;2023-02-02T01:24:33;24.10;;;4.00;;
19193;SDS011;9729;52.296;13.260;2023-02-02T01:27:02;20.43;;;4.57;;
19193;SDS011;9729;52.296;13.260;2023-02-02T01:29:30;17.30;;;3.13;;
19193;SDS011;9729;52.296;13.260;2023-02-02T01:31:57;22.90;;;4.23;;
19193;SDS011;9729;52.296;13.260;2023-02-02T01:34:23;21.80;;;4.73;;
19193;SDS011;9729;52.296;13.260;2023-02-02T01:36:50;17.83;;;2.93;;
19193;SDS011;9729;52.296;13.260;2023-02-02T01:39:16;21.17;;;3.87;;
19193;SDS011;9729;52.296;13.260;2023-02-02T01:41:42;14.20;;;3.47;;
19193;SDS011;9729;52.296;13.260;2023-02-02T01:47:15;22.40;;;3.67;;
19193;SDS011;9729;52.296;13.260;2023-02-02T01:49:43;15.07;;;3.77;;
19193;SDS011;9729;52.296;13.260;2023-02-02T01:52:10;20.00;;;3.30;;
19193;SDS011;9729;52.296;13.260;2023-02-02T01:54:39;26.83;;;3.80;;
19193;SDS011;9729;52.296;13.260;2023-02-02T01:57:12;15.83;;;3.40;;
19193;SDS011;9729;52.296;13.260;2023-02-02T01:59:41;20.63;;;4.10;;
19193;SDS011;9729;52.296;13.260;2023-02-02T02:02:09;30.27;;;3.83;;
19193;SDS011;9729;52.296;13.260;2023-02-02T02:04:37;21.30;;;3.50;;
19193;SDS011;9729;52.296;13.260;2023-02-02T02:07:04;32.97;;;5.00;;
19193;SDS011;9729;52.296;13.260;2023-02-02T02:09:30;12.90;;;3.23;;
19193;SDS011;9729;52.296;13.260;2023-02-02T02:11:57;22.40;;;3.17;;
19193;SDS011;9729;52.296;13.260;2023-02-02T02:14:23;22.13;;;3.97;;
19193;SDS011;9729;52.296;13.260;2023-02-02T02:17:20;15.63;;;2.93;;
19193;SDS011;9729;52.296;13.260;2023-02-02T02:20:06;21.97;;;3.60;;
19193;SDS011;9729;52.296;13.260;2023-02-02T02:29:46;20.93;;;3.23;;
19193;SDS011;9729;52.296;13.260;2023-02-02T02:32:31;20.00;;;3.20;;
19193;SDS011;9729;52.296;13.260;2023-02-02T02:35:04;17.67;;;2.57;;
19193;SDS011;9729;52.296;13.260;2023-02-02T02:37:36;15.40;;;3.83;;
19193;SDS011;9729;52.296;13.260;2023-02-02T02:40:06;16.43;;;3.07;;
19193;SDS011;9729;52.296;13.260;2023-02-02T02:42:37;14.43;;;3.13;;
19193;SDS011;9729;52.296;13.260;2023-02-02T02:45:16;14.47;;;3.27;;
19193;SDS011;9729;52.296;13.260;2023-02-02T02:47:44;21.90;;;3.47;;
19193;SDS011;9729;52.296;13.260;2023-02-02T02:50:10;19.93;;;3.77;;
19193;SDS011;9729;52.296;13.260;2023-02-02T02:52:37;12.77;;;2.30;;
19193;SDS011;9729;52.296;13.260;2023-02-02T02:55:04;14.70;;;2.70;;
19193;SDS011;9729;52.296;13.260;2023-02-02T02:57:45;20.20;;;3.00;;
19193;SDS011;9729;52.296;13.260;2023-02-02T03:00:23;17.90;;;2.60;;
19193;SDS011;9729;52.296;13.260;2023-02-02T03:03:04;26.87;;;4.10;;
19193;SDS011;9729;52.296;13.260;2023-02-02T03:05:37;27.20;;;3.47;;
19193;SDS011;9729;52.296;13.260;2023-02-02T03:08:07;21.03;;;4.20;;
19193;SDS011;9729;52.296;13.260;2023-02-02T03:10:35;12.37;;;2.73;;
19193;SDS011;9729;52.296;13.260;2023-02-02T03:13:06;11.83;;;2.80;;
19193;SDS011;9729;52.296;13.260;2023-02-02T03:15:34;12.03;;;2.17;;
19193;SDS011;9729;52.296;13.260;2023-02-02T03:18:02;20.63;;;3.97;;
19193;SDS011;9729;52.296;13.260;2023-02-02T03:20:28;17.13;;;3.27;;
19193;SDS011;9729;52.296;13.260;2023-02-02T03:22:57;10.07;;;2.60;;
19193;SDS011;9729;52.296;13.260;2023-02-02T03:25:24;14.33;;;2.60;;
19193;SDS011;9729;52.296;13.260;2023-02-02T03:28:09;12.53;;;1.97;;
19193;SDS011;9729;52.296;13.260;2023-02-02T03:30:39;17.50;;;2.67;;
19193;SDS011;9729;52.296;13.260;2023-02-02T03:33:08;18.50;;;3.43;;
19193;SDS011;9729;52.296;13.260;2023-02-02T03:35:40;12.03;;;1.80;;
19193;SDS011;9729;52.296;13.260;2023-02-02T03:38:08;12.83;;;2.47;;
19193;SDS011;9729;52.296;13.260;2023-02-02T03:40:36;18.80;;;3.93;;
19193;SDS011;9729;52.296;13.260;2023-02-02T03:43:04;16.17;;;4.07;;
19193;SDS011;9729;52.296;13.260;2023-02-02T03:45:36;4.30;;;1.43;;
19193;SDS011;9729;52.296;13.260;2023-02-02T03:48:06;18.00;;;2.73;;
19193;SDS011;9729;52.296;13.260;2023-02-02T03:50:33;16.13;;;2.80;;
19193;SDS011;9729;52.296;13.260;2023-02-02T03:53:00;14.80;;;2.47;;
19193;SDS011;9729;52.296;13.260;2023-02-02T03:55:26;9.93;;;2.27;;
19193;SDS011;9729;52.296;13.260;2023-02-02T03:57:52;13.03;;;2.63;;
19193;SDS011;9729;52.296;13.260;2023-02-02T04:00:19;10.77;;;2.40;;
19193;SDS011;9729;52.296;13.260;2023-02-02T04:02:46;18.87;;;3.57;;
19193;SDS011;9729;52.296;13.260;2023-02-02T04:05:13;25.50;;;4.13;;
19193;SDS011;9729;52.296;13.260;2023-02-02T04:07:41;19.87;;;2.10;;
19193;SDS011;9729;52.296;13.260;2023-02-02T04:10:08;12.13;;;3.60;;
19193;SDS011;9729;52.296;13.260;2023-02-02T04:12:35;12.47;;;2.73;;
19193;SDS011;9729;52.296;13.260;2023-02-02T04:15:02;16.90;;;2.73;;
19193;SDS011;9729;52.296;13.260;2023-02-02T04:17:29;12.03;;;2.27;;
19193;SDS011;9729;52.296;13.260;2023-02-02T04:19:55;12.63;;;3.13;;
19193;SDS011;9729;52.296;13.260;2023-02-02T04:22:22;9.13;;;2.10;;
19193;SDS011;9729;52.296;13.260;2023-02-02T04:24:50;19.87;;;2.40;;
19193;SDS011;9729;52.296;13.260;2023-02-02T04:27:16;7.37;;;1.80;;
19193;SDS011;9729;52.296;13.260;2023-02-02T04:29:43;12.43;;;2.53;;
19193;SDS011;9729;52.296;13.260;2023-02-02T04:32:13;10.20;;;1.90;;
19193;SDS011;9729;52.296;13.260;2023-02-02T04:34:40;11.63;;;2.60;;
19193;SDS011;9729;52.296;13.260;2023-02-02T04:37:06;6.13;;;1.20;;
19193;SDS011;9729;52.296;13.260;2023-02-02T04:39:32;6.43;;;1.90;;
19193;SDS011;9729;52.296;13.260;2023-02-02T04:42:00;8.57;;;1.83;;
19193;SDS011;9729;52.296;13.260;2023-02-02T04:44:27;15.20;;;2.87;;
19193;SDS011;9729;52.296;13.260;2023-02-02T04:46:53;10.07;;;1.97;;
19193;SDS011;9729;52.296;13.260;2023-02-02T04:49:20;12.67;;;1.83;;
19193;SDS011;9729;52.296;13.260;2023-02-02T04:51:47;10.23;;;1.93;;
19193;SDS011;9729;52.296;13.260;2023-02-02T04:54:15;12.73;;;2.20;;
19193;SDS011;9729;52.296;13.260;2023-02-02T04:56:42;9.40;;;2.00;;
19193;SDS011;9729;52.296;13.260;2023-02-02T04:59:09;5.60;;;1.30;;
19193;SDS011;9729;52.296;13.260;2023-02-02T05:01:36;11.40;;;1.97;;
19193;SDS011;9729;52.296;13.260;2023-02-02T05:04:02;12.33;;;2.17;;
19193;SDS011;9729;52.296;13.260;2023-02-02T05:06:29;10.87;;;2.07;;
19193;SDS011;9729;52.296;13.260;2023-02-02T05:08:55;13.33;;;2.00;;
19193;SDS011;9729;52.296;13.260;2023-02-02T05:11:22;12.70;;;1.93;;
19193;SDS011;9729;52.296;13.260;2023-02-02T05:13:49;15.60;;;1.90;;
19193;SDS011;9729;52.296;13.260;2023-02-02T05:16:18;13.17;;;1.77;;
19193;SDS011;9729;52.296;13.260;2023-02-02T05:18:47;11.03;;;2.37;;
19193;SDS011;9729;52.296;13.260;2023-02-02T05:21:14;9.83;;;2.00;;
19193;SDS011;9729;52.296;13.260;2023-02-02T05:23:40;7.37;;;1.47;;
19193;SDS011;9729;52.296;13.260;2023-02-02T05:26:09;14.67;;;2.40;;
19193;SDS011;9729;52.296;13.260;2023-02-02T05:28:38;16.37;;;2.83;;
19193;SDS011;9729;52.296;13.260;2023-02-02T05:31:06;13.60;;;1.77;;
19193;SDS011;9729;52.296;13.260;2023-02-02T05:33:33;10.63;;;2.47;;
19193;SDS011;9729;52.296;13.260;2023-02-02T05:36:00;13.73;;;2.73;;
19193;SDS011;9729;52.296;13.260;2023-02-02T05:38:26;16.93;;;3.97;;
19193;SDS011;9729;52.296;13.260;2023-02-02T05:40:52;16.00;;;2.70;;
19193;SDS011;9729;52.296;13.260;2023-02-02T05:43:23;10.00;;;2.80;;
19193;SDS011;9729;52.296;13.260;2023-02-02T05:45:50;11.20;;;1.90;;
19193;SDS011;9729;52.296;13.260;2023-02-02T05:48:16;10.77;;;2.50;;
19193;SDS011;9729;52.296;13.260;2023-02-02T05:50:44;13.47;;;2.20;;
19193;SDS011;9729;52.296;13.260;2023-02-02T05:53:15;10.67;;;1.97;;
19193;SDS011;9729;52.296;13.260;2023-02-02T05:55:42;14.90;;;2.50;;
19193;SDS011;9729;52.296;13.260;2023-02-02T05:58:09;7.07;;;2.27;;
19193;SDS011;9729;52.296;13.260;2023-02-02T06:00:35;12.70;;;2.10;;
19193;SDS011;9729;52.296;13.260;2023-02-02T06:03:02;11.27;;;1.87;;
19193;SDS011;9729;52.296;13.260;2023-02-02T06:05:28;11.23;;;2.37;;
19193;SDS011;9729;52.296;13.260;2023-02-02T06:07:56;6.77;;;1.67;;
19193;SDS011;9729;52.296;13.260;2023-02-02T06:10:22;7.93;;;2.73;;
19193;SDS011;9729;52.296;13.260;2023-02-02T06:12:48;9.50;;;2.00;;
19193;SDS011;9729;52.296;13.260;2023-02-02T06:15:15;14.93;;;2.33;;
19193;SDS011;9729;52.296;13.260;2023-02-02T06:17:41;9.93;;;2.43;;
19193;SDS011;9729;52.296;13.260;2023-02-02T06:20:08;10.97;;;2.57;;
19193;SDS011;9729;52.296;13.260;2023-02-02T06:22:35;13.67;;;2.57;;
19193;SDS011;9729;52.296;13.260;2023-02-02T06:25:05;7.83;;;1.93;;
19193;SDS011;9729;52.296;13.260;2023-02-02T06:27:32;10.90;;;1.93;;
19193;SDS011;9729;52.296;13.260;2023-02-02T06:29:59;16.67;;;3.13;;
19193;SDS011;9729;52.296;13.260;2023-02-02T06:32:27;6.03;;;1.53;;
19193;SDS011;9729;52.296;13.260;2023-02-02T06:34:53;12.87;;;2.43;;
19193;SDS011;9729;52.296;13.260;2023-02-02T06:37:22;10.87;;;1.90;;
19193;SDS011;9729;52.296;13.260;2023-02-02T06:39:50;10.97;;;1.77;;
19193;SDS011;9729;52.296;13.260;2023-02-02T06:42:19;14.83;;;2.10;;
19193;SDS011;9729;52.296;13.260;2023-02-02T06:44:45;16.10;;;3.17;;
19193;SDS011;9729;52.296;13.260;2023-02-02T06:47:11;13.20;;;2.47;;
19193;SDS011;9729;52.296;13.260;2023-02-02T06:49:38;12.80;;;2.10;;
19193;SDS011;9729;52.296;13.260;2023-02-02T06:52:12;8.87;;;2.20;;
19193;SDS011;9729;52.296;13.260;2023-02-02T06:54:39;16.27;;;2.67;;
19193;SDS011;9729;52.296;13.260;2023-02-02T06:57:05;18.87;;;3.70;;
19193;SDS011;9729;52.296;13.260;2023-02-02T06:59:34;12.53;;;1.90;;
19193;SDS011;9729;52.296;13.260;2023-02-02T07:02:01;23.93;;;3.57;;
19193;SDS011;9729;52.296;13.260;2023-02-02T07:04:27;22.30;;;2.97;;
19193;SDS011;9729;52.296;13.260;2023-02-02T07:06:53;15.50;;;2.33;;
19193;SDS011;9729;52.296;13.260;2023-02-02T07:09:20;14.37;;;2.80;;
19193;SDS011;9729;52.296;13.260;2023-02-02T07:11:46;19.33;;;3.30;;
19193;SDS011;9729;52.296;13.260;2023-02-02T07:14:13;23.43;;;3.40;;
19193;SDS011;9729;52.296;13.260;2023-02-02T07:16:41;17.50;;;2.83;;
19193;SDS011;9729;52.296;13.260;2023-02-02T07:19:08;19.80;;;3.10;;
19193;SDS011;9729;52.296;13.260;2023-02-02T07:21:35;24.13;;;3.73;;
19193;SDS011;9729;52.296;13.260;2023-02-02T07:24:04;17.57;;;3.80;;
19193;SDS011;9729;52.296;13.260;2023-02-02T07:26:32;26.00;;;3.60;;
19193;SDS011;9729;52.296;13.260;2023-02-02T07:28:59;17.20;;;3.60;;
19193;SDS011;9729;52.296;13.260;2023-02-02T07:31:25;26.43;;;2.77;;
19193;SDS011;9729;52.296;13.260;2023-02-02T07:33:54;14.07;;;3.13;;
19193;SDS011;9729;52.296;13.260;2023-02-02T07:36:22;24.67;;;3.63;;
19193;SDS011;9729;52.296;13.260;2023-02-02T07:38:57;22.20;;;3.27;;
19193;SDS011;9729;52.296;13.260;2023-02-02T07:41:26;19.07;;;3.33;;
19193;SDS011;9729;52.296;13.260;2023-02-02T07:43:56;24.97;;;3.83;;
19193;SDS011;9729;52.296;13.260;2023-02-02T07:46:23;22.97;;;3.43;;
19193;SDS011;9729;52.296;13.260;2023-02-02T07:48:51;20.40;;;3.23;;
19193;SDS011;9729;52.296;13.260;2023-02-02T07:51:20;15.60;;;3.13;;
19193;SDS011;9729;52.296;13.260;2023-02-02T07:53:49;25.23;;;3.57;;
19193;SDS011;9729;52.296;13.260;2023-02-02T07:56:19;21.67;;;3.23;;
19193;SDS011;9729;52.296;13.260;2023-02-02T07:58:50;17.07;;;2.57;;
19193;SDS011;9729;52.296;13.260;2023-02-02T08:01:18;13.57;;;2.50;;
19193;SDS011;9729;52.296;13.260;2023-02-02T08:03:46;14.83;;;3.47;;
19193;SDS011;9729;52.296;13.260;2023-02-02T08:06:14;15.13;;;2.63;;
19193;SDS011;9729;52.296;13.260;2023-02-02T08:08:44;19.17;;;2.90;;
19193;SDS011;9729;52.296;13.260;2023-02-02T08:11:13;13.33;;;2.30;;
19193;SDS011;9729;52.296;13.260;2023-02-02T08:13:41;12.97;;;2.00;;
19193;SDS011;9729;52.296;13.260;2023-02-02T08:16:08;14.90;;;2.73;;
19193;SDS011;9729;52.296;13.260;2023-02-02T08:18:35;15.07;;;2.30;;
19193;SDS011;9729;52.296;13.260;2023-02-02T08:21:03;8.67;;;2.33;;
19193;SDS011;9729;52.296;13.260;2023-02-02T08:23:34;16.87;;;2.93;;
19193;SDS011;9729;52.296;13.260;2023-02-02T08:26:08;10.80;;;2.23;;
19193;SDS011;9729;52.296;13.260;2023-02-02T08:28:37;14.43;;;1.80;;
19193;SDS011;9729;52.296;13.260;2023-02-02T08:31:05;15.73;;;2.37;;
19193;SDS011;9729;52.296;13.260;2023-02-02T08:33:32;9.47;;;1.93;;
19193;SDS011;9729;52.296;13.260;2023-02-02T08:35:58;13.47;;;2.20;;
19193;SDS011;9729;52.296;13.260;2023-02-02T08:38:25;10.27;;;2.07;;
19193;SDS011;9729;52.296;13.260;2023-02-02T08:40:51;14.07;;;2.33;;
19193;SDS011;9729;52.296;13.260;2023-02-02T08:43:19;8.90;;;1.90;;
19193;SDS011;9729;52.296;13.260;2023-02-02T08:45:45;8.67;;;1.90;;
19193;SDS011;9729;52.296;13.260;2023-02-02T08:48:13;5.03;;;1.60;;
19193;SDS011;9729;52.296;13.260;2023-02-02T08:50:42;11.80;;;2.00;;
19193;SDS011;9729;52.296;13.260;2023-02-02T08:53:08;7.23;;;1.70;;
19193;SDS011;9729;52.296;13.260;2023-02-02T08:55:34;9.17;;;2.50;;
19193;SDS011;9729;52.296;13.260;2023-02-02T08:58:01;5.33;;;1.43;;
19193;SDS011;9729;52.296;13.260;2023-02-02T09:00:29;15.00;;;1.67;;
19193;SDS011;9729;52.296;13.260;2023-02-02T09:02:57;10.97;;;2.57;;
19193;SDS011;9729;52.296;13.260;2023-02-02T09:05:34;7.23;;;1.97;;
19193;SDS011;9729;52.296;13.260;2023-02-02T09:08:03;7.67;;;1.93;;
19193;SDS011;9729;52.296;13.260;2023-02-02T09:10:33;13.37;;;2.10;;
19193;SDS011;9729;52.296;13.260;2023-02-02T09:13:00;9.40;;;2.20;;
19193;SDS011;9729;52.296;13.260;2023-02-02T09:15:26;13.17;;;2.03;;
19193;SDS011;9729;52.296;13.260;2023-02-02T09:17:54;15.03;;;2.20;;
19193;SDS011;9729;52.296;13.260;2023-02-02T09:20:27;8.10;;;1.67;;
19193;SDS011;9729;52.296;13.260;2023-02-02T09:22:53;11.73;;;2.33;;
19193;SDS011;9729;52.296;13.260;2023-02-02T09:25:21;12.77;;;2.10;;
19193;SDS011;9729;52.296;13.260;2023-02-02T09:27:49;13.30;;;2.57;;
19193;SDS011;9729;52.296;13.260;2023-02-02T09:30:15;17.30;;;2.50;;
19193;SDS011;9729;52.296;13.260;2023-02-02T09:32:45;10.43;;;1.90;;
19193;SDS011;9729;52.296;13.260;2023-02-02T09:35:16;15.77;;;2.87;;
19193;SDS011;9729;52.296;13.260;2023-02-02T09:37:42;11.53;;;2.80;;
19193;SDS011;9729;52.296;13.260;2023-02-02T09:40:12;10.53;;;2.37;;
19193;SDS011;9729;52.296;13.260;2023-02-02T09:42:43;13.53;;;2.10;;
19193;SDS011;9729;52.296;13.260;2023-02-02T09:45:19;19.10;;;3.13;;
19193;SDS011;9729;52.296;13.260;2023-02-02T09:47:53;10.53;;;2.07;;
19193;SDS011;9729;52.296;13.260;2023-02-02T09:53:24;12.43;;;2.67;;
19193;SDS011;9729;52.296;13.260;2023-02-02T09:55:53;13.17;;;2.30;;
19193;SDS011;9729;52.296;13.260;2023-02-02T09:58:24;16.77;;;2.97;;
19193;SDS011;9729;52.296;13.260;2023-02-02T10:00:57;9.80;;;2.87;;
19193;SDS011;9729;52.296;13.260;2023-02-02T10:03:29;7.00;;;2.00;;
19193;SDS011;9729;52.296;13.260;2023-02-02T10:06:02;10.13;;;3.13;;
19193;SDS011;9729;52.296;13.260;2023-02-02T10:08:32;18.97;;;2.23;;
19193;SDS011;9729;52.296;13.260;2023-02-02T10:11:03;9.43;;;2.47;;
19193;SDS011;9729;52.296;13.260;2023-02-02T10:13:34;10.80;;;1.90;;
19193;SDS011;9729;52.296;13.260;2023-02-02T10:16:09;5.57;;;1.23;;
19193;SDS011;9729;52.296;13.260;2023-02-02T10:18:44;11.17;;;2.10;;
19193;SDS011;9729;52.296;13.260;2023-02-02T10:21:17;6.80;;;1.60;;
19193;SDS011;9729;52.296;13.260;2023-02-02T10:23:49;19.50;;;2.23;;
19193;SDS011;9729;52.296;13.260;2023-02-02T10:26:16;8.20;;;1.70;;
19193;SDS011;9729;52.296;13.260;2023-02-02T10:28:53;7.07;;;1.50;;
19193;SDS011;9729;52.296;13.260;2023-02-02T10:31:37;19.10;;;2.50;;
19193;SDS011;9729;52.296;13.260;2023-02-02T10:34:15;15.87;;;1.63;;
19193;SDS011;9729;52.296;13.260;2023-02-02T10:36:50;8.03;;;2.10;;
19193;SDS011;9729;52.296;13.260;2023-02-02T10:39:24;10.80;;;2.80;;
19193;SDS011;9729;52.296;13.260;2023-02-02T10:42:01;11.80;;;3.60;;
19193;SDS011;9729;52.296;13.260;2023-02-02T10:44:33;11.40;;;1.80;;
19193;SDS011;9729;52.296;13.260;2023-02-02T10:47:03;4.80;;;1.37;;
19193;SDS011;9729;52.296;13.260;2023-02-02T10:49:34;10.07;;;1.97;;
19193;SDS011;9729;52.296;13.260;2023-02-02T10:52:03;7.13;;;2.20;;
19193;SDS011;9729;52.296;13.260;2023-02-02T10:54:41;12.87;;;1.63;;
19193;SDS011;9729;52.296;13.260;2023-02-02T10:57:16;6.27;;;1.40;;
19193;SDS011;9729;52.296;13.260;2023-02-02T10:59:57;12.33;;;2.13;;
19193;SDS011;9729;52.296;13.260;2023-02-02T11:02:30;7.23;;;1.50;;
19193;SDS011;9729;52.296;13.260;2023-02-02T11:04:58;12.47;;;1.80;;
19193;SDS011;9729;52.296;13.260;2023-02-02T11:07:42;6.30;;;2.13;;
19193;SDS011;9729;52.296;13.260;2023-02-02T11:10:09;10.07;;;1.53;;
19193;SDS011;9729;52.296;13.260;2023-02-02T11:12:39;7.80;;;1.40;;
19193;SDS011;9729;52.296;13.260;2023-02-02T11:15:08;10.37;;;2.30;;
19193;SDS011;9729;52.296;13.260;2023-02-02T11:17:49;4.97;;;1.33;;
19193;SDS011;9729;52.296;13.260;2023-02-02T11:20:22;15.00;;;1.70;;
19193;SDS011;9729;52.296;13.260;2023-02-02T11:22:58;6.17;;;1.30;;
19193;SDS011;9729;52.296;13.260;2023-02-02T11:25:29;7.07;;;1.03;;
19193;SDS011;9729;52.296;13.260;2023-02-02T11:28:08;8.37;;;1.40;;
19193;SDS011;9729;52.296;13.260;2023-02-02T11:30:37;5.47;;;1.60;;
19193;SDS011;9729;52.296;13.260;2023-02-02T11:33:18;5.67;;;1.20;;
19193;SDS011;9729;52.296;13.260;2023-02-02T11:35:52;7.03;;;1.50;;
19193;SDS011;9729;52.296;13.260;2023-02-02T11:38:20;6.63;;;1.17;;
19193;SDS011;9729;52.296;13.260;2023-02-02T11:40:55;10.10;;;1.47;;
19193;SDS011;9729;52.296;13.260;2023-02-02T11:43:27;12.33;;;1.73;;
19193;SDS011;9729;52.296;13.260;2023-02-02T11:45:58;8.40;;;2.00;;
19193;SDS011;9729;52.296;13.260;2023-02-02T11:48:27;3.73;;;1.43;;
19193;SDS011;9729;52.296;13.260;2023-02-02T11:50:58;7.60;;;1.93;;
19193;SDS011;9729;52.296;13.260;2023-02-02T11:53:26;13.67;;;1.70;;
19193;SDS011;9729;52.296;13.260;2023-02-02T11:55:55;12.27;;;1.40;;
19193;SDS011;9729;52.296;13.260;2023-02-02T11:58:24;4.60;;;1.33;;
19193;SDS011;9729;52.296;13.260;2023-02-02T12:00:53;8.83;;;1.40;;
19193;SDS011;9729;52.296;13.260;2023-02-02T12:03:26;7.77;;;1.57;;
19193;SDS011;9729;52.296;13.260;2023-02-02T12:05:58;10.57;;;2.07;;
19193;SDS011;9729;52.296;13.260;2023-02-02T12:08:32;11.23;;;2.43;;
19193;SDS011;9729;52.296;13.260;2023-02-02T12:10:59;8.27;;;1.37;;
19193;SDS011;9729;52.296;13.260;2023-02-02T12:13:36;9.07;;;2.00;;
19193;SDS011;9729;52.296;13.260;2023-02-02T12:16:12;5.90;;;1.47;;
19193;SDS011;9729;52.296;13.260;2023-02-02T12:18:54;9.13;;;1.63;;
19193;SDS011;9729;52.296;13.260;2023-02-02T12:21:30;5.17;;;1.37;;
19193;SDS011;9729;52.296;13.260;2023-02-02T12:24:04;12.43;;;1.50;;
19193;SDS011;9729;52.296;13.260;2023-02-02T12:26:39;14.60;;;2.30;;
19193;SDS011;9729;52.296;13.260;2023-02-02T12:29:20;9.63;;;2.00;;
19193;SDS011;9729;52.296;13.260;2023-02-02T12:31:59;7.93;;;1.50;;
19193;SDS011;9729;52.296;13.260;2023-02-02T12:34:38;15.40;;;1.87;;
19193;SDS011;9729;52.296;13.260;2023-02-02T12:37:16;7.97;;;1.27;;
19193;SDS011;9729;52.296;13.260;2023-02-02T12:39:50;9.57;;;1.70;;
19193;SDS011;9729;52.296;13.260;2023-02-02T12:42:34;12.90;;;2.03;;
19193;SDS011;9729;52.296;13.260;2023-02-02T12:45:22;11.13;;;2.40;;
19193;SDS011;9729;52.296;13.260;2023-02-02T12:47:59;12.97;;;1.90;;
19193;SDS011;9729;52.296;13.260;2023-02-02T12:50:42;10.13;;;2.00;;
19193;SDS011;9729;52.296;13.260;2023-02-02T12:53:28;8.50;;;1.40;;
19193;SDS011;9729;52.296;13.260;2023-02-02T12:56:06;13.80;;;2.10;;
19193;SDS011;9729;52.296;13.260;2023-02-02T12:58:46;10.17;;;1.93;;
19193;SDS011;9729;52.296;13.260;2023-02-02T13:01:27;9.77;;;1.30;;
19193;SDS011;9729;52.296;13.260;2023-02-02T13:04:05;8.70;;;1.63;;
19193;SDS011;9729;52.296;13.260;2023-02-02T13:06:48;10.60;;;1.50;;
19193;SDS011;9729;52.296;13.260;2023-02-02T13:09:38;9.93;;;2.10;;
19193;SDS011;9729;52.296;13.260;2023-02-02T13:12:07;11.00;;;2.60;;
19193;SDS011;9729;52.296;13.260;2023-02-02T13:14:39;5.83;;;1.10;;
19193;SDS011;9729;52.296;13.260;2023-02-02T13:17:13;7.70;;;1.30;;
19193;SDS011;9729;52.296;13.260;2023-02-02T13:19:41;5.47;;;1.13;;
19193;SDS011;9729;52.296;13.260;2023-02-02T13:22:13;3.53;;;1.10;;
19193;SDS011;9729;52.296;13.260;2023-02-02T13:24:45;5.17;;;1.23;;
19193;SDS011;9729;52.296;13.260;2023-02-02T13:27:13;3.07;;;1.50;;
19193;SDS011;9729;52.296;13.260;2023-02-02T13:29:44;10.97;;;1.87;;
19193;SDS011;9729;52.296;13.260;2023-02-02T13:32:14;9.03;;;1.20;;
19193;SDS011;9729;52.296;13.260;2023-02-02T13:34:45;7.00;;;1.90;;
19193;SDS011;9729;52.296;13.260;2023-02-02T13:37:15;8.73;;;1.20;;
19193;SDS011;9729;52.296;13.260;2023-02-02T13:39:52;5.80;;;1.37;;
19193;SDS011;9729;52.296;13.260;2023-02-02T13:42:25;5.97;;;1.43;;
19193;SDS011;9729;52.296;13.260;2023-02-02T13:44:56;3.43;;;1.53;;
19193;SDS011;9729;52.296;13.260;2023-02-02T13:47:29;13.90;;;1.30;;
19193;SDS011;9729;52.296;13.260;2023-02-02T13:50:02;7.33;;;1.40;;
19193;SDS011;9729;52.296;13.260;2023-02-02T13:52:39;12.57;;;1.37;;
19193;SDS011;9729;52.296;13.260;2023-02-02T13:55:31;10.53;;;1.90;;
19193;SDS011;9729;52.296;13.260;2023-02-02T13:58:09;7.70;;;1.73;;
19193;SDS011;9729;52.296;13.260;2023-02-02T14:00:51;9.20;;;1.43;;
19193;SDS011;9729;52.296;13.260;2023-02-02T14:03:22;8.83;;;1.27;;
19193;SDS011;9729;52.296;13.260;2023-02-02T14:06:05;5.60;;;1.40;;
19193;SDS011;9729;52.296;13.260;2023-02-02T14:08:34;3.50;;;1.10;;
19193;SDS011;9729;52.296;13.260;2023-02-02T14:11:04;10.20;;;1.33;;
19193;SDS011;9729;52.296;13.260;2023-02-02T14:13:35;7.90;;;1.27;;
19193;SDS011;9729;52.296;13.260;2023-02-02T14:19:12;11.50;;;1.93;;
19193;SDS011;9729;52.296;13.260;2023-02-02T14:24:36;6.40;;;2.17;;
19193;SDS011;9729;52.296;13.260;2023-02-02T14:30:24;10.87;;;1.90;;
19193;SDS011;9729;52.296;13.260;2023-02-02T14:32:53;7.23;;;1.87;;
19193;SDS011;9729;52.296;13.260;2023-02-02T14:38:24;6.23;;;1.77;;
19193;SDS011;9729;52.296;13.260;2023-02-02T14:41:00;12.27;;;2.73;;
19193;SDS011;9729;52.296;13.260;2023-02-02T14:43:33;7.50;;;1.60;;
19193;SDS011;9729;52.296;13.260;2023-02-02T14:49:18;9.47;;;2.53;;
19193;SDS011;9729;52.296;13.260;2023-02-02T14:51:49;6.53;;;1.93;;
19193;SDS011;9729;52.296;13.260;2023-02-02T14:54:20;11.03;;;1.47;;
19193;SDS011;9729;52.296;13.260;2023-02-02T14:56:54;6.90;;;2.17;;
19193;SDS011;9729;52.296;13.260;2023-02-02T14:59:23;6.30;;;2.03;;
19193;SDS011;9729;52.296;13.260;2023-02-02T15:01:58;5.13;;;1.43;;
19193;SDS011;9729;52.296;13.260;2023-02-02T15:04:31;9.37;;;1.90;;
19193;SDS011;9729;52.296;13.260;2023-02-02T15:10:01;12.23;;;1.80;;
19193;SDS011;9729;52.296;13.260;2023-02-02T15:12:31;6.90;;;1.87;;
19193;SDS011;9729;52.296;13.260;2023-02-02T15:15:13;12.70;;;2.00;;
19193;SDS011;9729;52.296;13.260;2023-02-02T15:20:30;7.43;;;1.53;;
19193;SDS011;9729;52.296;13.260;2023-02-02T15:22:59;14.47;;;2.53;;
19193;SDS011;9729;52.296;13.260;2023-02-02T15:25:39;14.03;;;2.40;;
19193;SDS011;9729;52.296;13.260;2023-02-02T15:28:13;7.47;;;1.97;;
19193;SDS011;9729;52.296;13.260;2023-02-02T15:30:47;12.37;;;2.47;;